createdAt,value
2024-01-11T00:00:11.142Z,16.42
2024-01-11T00:02:13.007Z,16.83
2024-01-11T00:04:15.327Z,16.58
2024-01-11T00:06:17.229Z,16.80
2024-01-11T00:08:19.016Z,15.52
2024-01-11T00:10:21.526Z,17.58
2024-01-11T00:12:23.282Z,16.60
2024-01-11T00:14:25.075Z,18.92
2024-01-11T00:16:27.682Z,19.67
2024-01-11T00:18:29.800Z,19.05
2024-01-11T00:20:31.642Z,19.50
2024-01-11T00:22:33.517Z,19.23
2024-01-11T00:24:39.435Z,19.30
2024-01-11T00:26:42.931Z,18.42
2024-01-11T00:28:44.698Z,18.48
2024-01-11T00:30:46.470Z,18.15
2024-01-11T00:32:48.443Z,18.55
2024-01-11T00:34:50.275Z,18.65
2024-01-11T00:36:51.991Z,19.55
2024-01-11T00:38:53.780Z,19.52
2024-01-11T00:40:55.522Z,18.40
2024-01-11T00:42:57.296Z,21.55
2024-01-11T00:44:59.066Z,19.67
2024-01-11T00:47:00.811Z,18.55
2024-01-11T00:49:02.723Z,18.95
2024-01-11T00:51:08.349Z,18.70
2024-01-11T00:53:10.775Z,19.98
2024-01-11T00:55:12.587Z,21.08
2024-01-11T00:57:14.319Z,20.58
2024-01-11T00:59:16.149Z,21.50
2024-01-11T01:01:18.018Z,23.08
2024-01-11T01:03:21.003Z,21.40
2024-01-11T01:05:22.868Z,19.27
2024-01-11T01:07:24.695Z,20.58
2024-01-11T01:09:26.433Z,20.27
2024-01-11T01:11:28.258Z,21.08
2024-01-11T01:13:29.995Z,21.30
2024-01-11T01:15:31.727Z,22.92
2024-01-11T01:17:33.529Z,22.40
2024-01-11T01:19:35.336Z,20.88
2024-01-11T01:21:37.125Z,22.27
2024-01-11T01:23:39.194Z,21.33
2024-01-11T01:25:40.967Z,19.55
2024-01-11T01:27:42.738Z,20.92
2024-01-11T01:29:44.518Z,21.08
2024-01-11T01:31:46.254Z,21.30
2024-01-11T01:33:48.154Z,21.10
2024-01-11T01:35:50.162Z,21.33
2024-01-11T01:37:51.949Z,20.90
2024-01-11T01:39:53.769Z,19.77
2024-01-11T01:41:55.483Z,22.00
2024-01-11T01:43:57.232Z,21.77
2024-01-11T01:45:59.967Z,23.02
2024-01-11T01:48:02.805Z,23.42
2024-01-11T01:50:05.642Z,23.45
2024-01-11T01:52:08.796Z,23.67
2024-01-11T01:54:10.908Z,23.75
2024-01-11T01:56:13.851Z,25.88
2024-01-11T01:58:16.905Z,23.77
2024-01-11T02:00:19.436Z,25.30
2024-01-11T02:02:22.945Z,25.75
2024-01-11T02:04:25.056Z,24.70
2024-01-11T02:06:28.644Z,25.70
2024-01-11T02:08:31.972Z,24.98
2024-01-11T02:10:34.306Z,26.35
2024-01-11T02:12:39.235Z,25.48
2024-01-11T02:14:41.871Z,25.95
2024-01-11T02:16:43.663Z,26.30
2024-01-11T02:18:45.552Z,25.02
2024-01-11T02:20:47.550Z,24.42
2024-01-11T02:22:57.514Z,26.63
2024-01-11T02:24:59.802Z,24.35
2024-01-11T02:27:06.317Z,23.83
2024-01-11T02:29:08.125Z,24.00
2024-01-11T02:31:09.961Z,22.75
2024-01-11T02:33:12.478Z,22.05
2024-01-11T02:35:19.638Z,22.23
2024-01-11T02:37:22.093Z,23.45
2024-01-11T02:39:26.024Z,22.65
2024-01-11T02:41:29.245Z,24.15
2024-01-11T02:43:31.007Z,25.17
2024-01-11T02:45:32.801Z,24.95
2024-01-11T02:47:34.638Z,25.20
2024-01-11T02:49:37.620Z,25.10
2024-01-11T02:51:39.627Z,26.42
2024-01-11T02:53:41.568Z,26.70
2024-01-11T02:55:43.412Z,24.85
2024-01-11T02:57:45.379Z,24.60
2024-01-11T02:59:47.104Z,24.13
2024-01-11T03:01:48.911Z,24.48
2024-01-11T03:03:52.807Z,24.02
2024-01-11T03:05:55.083Z,25.17
2024-01-11T03:07:57.068Z,24.70
2024-01-11T03:09:58.877Z,26.25
2024-01-11T03:12:00.724Z,25.98
2024-01-11T03:14:04.082Z,27.52
2024-01-11T03:16:06.663Z,26.48
2024-01-11T03:18:08.822Z,25.70
2024-01-11T03:20:11.248Z,26.73
2024-01-11T03:22:13.589Z,27.90
2024-01-11T03:24:15.390Z,27.67
2024-01-11T03:26:18.318Z,29.00
2024-01-11T03:28:20.143Z,28.40
2024-01-11T03:30:21.999Z,30.38
2024-01-11T03:32:24.110Z,29.95
2024-01-11T03:34:26.028Z,30.45
2024-01-11T03:36:27.840Z,30.05
2024-01-11T03:38:29.639Z,29.77
2024-01-11T03:40:31.365Z,29.73
2024-01-11T03:42:33.177Z,27.05
2024-01-11T03:44:34.964Z,28.98
2024-01-11T03:46:36.674Z,28.65
2024-01-11T03:48:38.612Z,29.33
2024-01-11T03:50:40.695Z,28.40
2024-01-11T03:52:43.646Z,30.38
2024-01-11T03:54:45.552Z,29.50
2024-01-11T03:56:47.323Z,27.63
2024-01-11T03:58:49.131Z,29.63
2024-01-11T04:00:51.539Z,30.05
2024-01-11T04:02:53.323Z,28.70
2024-01-11T04:04:55.363Z,28.25
2024-01-11T04:06:57.102Z,28.73
2024-01-11T04:08:59.179Z,28.70
2024-01-11T04:11:04.670Z,28.27
2024-01-11T04:13:08.596Z,27.60
2024-01-11T04:15:13.408Z,28.73
2024-01-11T04:17:15.297Z,28.23
2024-01-11T04:19:18.790Z,26.80
2024-01-11T04:21:29.656Z,29.08
2024-01-11T04:23:31.863Z,28.17
2024-01-11T04:25:33.719Z,24.02
2024-01-11T04:27:35.446Z,26.77
2024-01-11T04:29:37.208Z,25.83
2024-01-11T04:31:38.982Z,24.95
2024-01-11T04:33:47.677Z,24.55
2024-01-11T04:35:49.594Z,26.63
2024-01-11T04:37:51.700Z,25.73
2024-01-11T04:39:53.421Z,26.83
2024-01-11T04:41:55.132Z,26.45
2024-01-11T04:43:56.860Z,26.60
2024-01-11T04:45:58.675Z,27.10
2024-01-11T04:48:00.545Z,26.75
2024-01-11T04:50:02.485Z,27.25
2024-01-11T04:52:04.796Z,27.70
2024-01-11T04:54:06.733Z,26.83
2024-01-11T04:56:09.637Z,26.85
2024-01-11T04:58:11.541Z,28.92
2024-01-11T05:00:13.803Z,26.23
2024-01-11T05:02:15.565Z,28.30
2024-01-11T05:04:17.285Z,27.08
2024-01-11T05:06:19.988Z,27.50
2024-01-11T05:08:21.944Z,29.30
2024-01-11T05:10:23.737Z,29.48
2024-01-11T05:12:25.559Z,27.95
2024-01-11T05:14:27.318Z,28.83
2024-01-11T05:16:29.923Z,30.65
2024-01-11T05:18:35.012Z,29.20
2024-01-11T05:20:37.380Z,29.50
2024-01-11T05:22:39.133Z,29.10
2024-01-11T05:24:41.242Z,27.67
2024-01-11T05:26:43.093Z,28.20
2024-01-11T05:28:45.492Z,28.63
2024-01-11T05:30:50.538Z,29.00
2024-01-11T05:32:52.398Z,28.58
2024-01-11T05:34:54.205Z,28.52
2024-01-11T05:36:56.159Z,28.88
2024-01-11T05:38:58.363Z,27.70
2024-01-11T05:41:00.323Z,28.17
2024-01-11T05:43:02.121Z,27.92
2024-01-11T05:45:05.182Z,27.88
2024-01-11T05:47:06.936Z,28.10
2024-01-11T05:49:09.042Z,28.73
2024-01-11T05:51:11.111Z,29.92
2024-01-11T05:53:13.744Z,29.17
2024-01-11T05:55:15.613Z,29.45
2024-01-11T05:57:18.024Z,29.75
2024-01-11T05:59:19.819Z,29.73
2024-01-11T06:01:22.848Z,30.15
2024-01-11T06:03:24.703Z,30.40
2024-01-11T06:05:27.199Z,28.80
2024-01-11T06:07:29.495Z,31.05
2024-01-11T06:09:31.316Z,26.98
2024-01-11T06:11:33.531Z,28.65
2024-01-11T06:13:35.302Z,28.50
2024-01-11T06:15:37.021Z,28.30
2024-01-11T06:17:39.053Z,29.85
2024-01-11T06:19:40.840Z,28.02
2024-01-11T06:21:42.602Z,30.02
2024-01-11T06:23:48.391Z,29.00
2024-01-11T06:25:50.348Z,30.50
2024-01-11T06:27:52.185Z,29.30
2024-01-11T06:29:54.301Z,30.67
2024-01-11T06:31:56.204Z,29.55
2024-01-11T06:33:57.990Z,29.70
2024-01-11T06:35:59.998Z,30.13
2024-01-11T06:38:02.189Z,28.92
2024-01-11T06:40:04.997Z,29.10
2024-01-11T06:42:07.914Z,29.02
2024-01-11T06:44:10.282Z,28.73
2024-01-11T06:46:12.121Z,31.52
2024-01-11T06:48:14.090Z,29.77
2024-01-11T06:50:16.218Z,29.13
2024-01-11T06:52:17.999Z,29.52
2024-01-11T06:54:19.694Z,29.05
2024-01-11T06:56:22.372Z,30.83
2024-01-11T06:58:24.449Z,31.35
2024-01-11T07:00:26.301Z,29.00
2024-01-11T07:02:28.174Z,31.35
2024-01-11T07:04:32.239Z,30.95
2024-01-11T07:06:35.383Z,30.63
2024-01-11T07:08:37.364Z,28.98
2024-01-11T07:10:39.096Z,29.63
2024-01-11T07:12:42.796Z,29.15
2024-01-11T07:14:44.720Z,29.98
2024-01-11T07:16:46.684Z,29.67
2024-01-11T07:18:48.518Z,29.20
2024-01-11T07:20:50.421Z,28.83
2024-01-11T07:22:52.290Z,31.48
2024-01-11T07:24:54.070Z,30.38
2024-01-11T07:26:55.867Z,28.75
2024-01-11T07:28:57.886Z,29.73
2024-01-11T07:30:59.886Z,29.67
2024-01-11T07:33:02.319Z,29.73
2024-01-11T07:35:06.900Z,29.13
2024-01-11T07:37:10.312Z,29.42
2024-01-11T07:39:12.030Z,29.63
2024-01-11T07:41:13.938Z,30.02
2024-01-11T07:43:15.720Z,31.08
2024-01-11T07:45:17.510Z,30.40
2024-01-11T07:47:19.257Z,29.70
2024-01-11T07:49:22.056Z,30.52
2024-01-11T07:51:24.135Z,30.25
2024-01-11T07:53:25.895Z,30.23
2024-01-11T07:55:27.816Z,28.40
2024-01-11T07:57:29.950Z,30.13
2024-01-11T07:59:37.454Z,31.08
2024-01-11T08:01:39.409Z,31.15
2024-01-11T08:03:43.095Z,31.88
2024-01-11T08:05:45.794Z,32.72
2024-01-11T08:07:47.601Z,32.30
2024-01-11T08:09:49.311Z,32.83
2024-01-11T08:11:52.267Z,31.75
2024-01-11T08:13:56.112Z,29.80
2024-01-11T08:15:58.898Z,31.88
2024-01-11T08:18:01.880Z,30.63
2024-01-11T08:20:05.172Z,30.63
2024-01-11T08:22:07.368Z,30.80
2024-01-11T08:24:09.192Z,30.80
2024-01-11T08:26:20.456Z,31.63
2024-01-11T08:28:22.328Z,30.25
2024-01-11T08:30:24.153Z,32.53
2024-01-11T08:32:31.542Z,30.63
2024-01-11T08:34:34.751Z,31.73
2024-01-11T08:36:36.726Z,31.45
2024-01-11T08:38:38.568Z,30.70
2024-01-11T08:40:40.417Z,32.25
2024-01-11T08:42:42.728Z,32.80
2024-01-11T08:44:44.637Z,31.48
2024-01-11T08:46:46.452Z,30.98
2024-01-11T08:48:48.405Z,32.08
2024-01-11T08:50:50.255Z,32.38
2024-01-11T08:52:52.021Z,32.58
2024-01-11T08:54:53.769Z,34.05
2024-01-11T08:56:55.582Z,31.85
2024-01-11T08:58:59.468Z,32.97
2024-01-11T09:01:01.519Z,32.97
2024-01-11T09:03:04.138Z,32.72
2024-01-11T09:05:09.399Z,33.25
2024-01-11T09:07:11.781Z,33.33
2024-01-11T09:09:14.798Z,32.80
2024-01-11T09:11:18.612Z,34.60
2024-01-11T09:13:20.715Z,33.33
2024-01-11T09:15:22.500Z,33.80
2024-01-11T09:17:24.363Z,32.60
2024-01-11T09:19:26.645Z,34.03
2024-01-11T09:21:28.459Z,32.88
2024-01-11T09:23:30.266Z,32.28
2024-01-11T09:25:32.227Z,34.17
2024-01-11T09:27:33.969Z,32.20
2024-01-11T09:29:35.802Z,32.35
2024-01-11T09:31:37.620Z,33.50
2024-01-11T09:33:39.632Z,31.13
2024-01-11T09:35:41.447Z,32.35
2024-01-11T09:37:48.105Z,31.55
2024-01-11T09:39:49.986Z,32.20
2024-01-11T09:42:00.615Z,32.53
2024-01-11T09:44:06.213Z,32.13
2024-01-11T09:46:08.282Z,31.45
2024-01-11T09:48:11.766Z,30.88
2024-01-11T09:50:19.564Z,33.55
2024-01-11T09:52:23.565Z,30.50
2024-01-11T09:54:26.498Z,31.17
2024-01-11T09:56:29.860Z,32.42
2024-01-11T09:58:32.426Z,30.90
2024-01-11T10:00:35.323Z,32.50
2024-01-11T10:02:37.148Z,32.60
2024-01-11T10:04:39.067Z,30.27
2024-01-11T10:06:41.595Z,31.25
2024-01-11T10:08:43.410Z,31.75
2024-01-11T10:10:45.231Z,30.40
2024-01-11T10:12:48.865Z,31.77
2024-01-11T10:14:51.326Z,31.33
2024-01-11T10:16:55.865Z,30.27
2024-01-11T10:18:58.152Z,30.50
2024-01-11T10:20:59.982Z,29.45
2024-01-11T10:23:03.400Z,29.23
2024-01-11T10:25:13.703Z,31.25
2024-01-11T10:27:15.411Z,28.67
2024-01-11T10:29:19.405Z,30.80
2024-01-11T10:31:25.743Z,30.27
2024-01-11T10:33:27.671Z,30.85
2024-01-11T10:35:29.676Z,28.10
2024-01-11T10:37:31.966Z,30.13
2024-01-11T10:39:36.799Z,29.92
2024-01-11T10:41:42.896Z,31.17
2024-01-11T10:43:45.173Z,29.23
2024-01-11T10:45:50.193Z,28.55
2024-01-11T10:47:57.244Z,30.15
2024-01-11T10:50:02.849Z,29.43
2024-01-11T10:52:07.411Z,28.63
2024-01-11T10:54:09.313Z,28.27
2024-01-11T10:56:13.683Z,28.95
2024-01-11T10:58:17.622Z,29.38
2024-01-11T11:00:20.382Z,28.95
2024-01-11T11:02:23.546Z,29.58
2024-01-11T11:04:26.717Z,28.60
2024-01-11T11:06:29.746Z,29.15
2024-01-11T11:08:32.859Z,29.55
2024-01-11T11:10:35.698Z,28.85
2024-01-11T11:12:39.266Z,27.80
2024-01-11T11:14:41.890Z,28.98
2024-01-11T11:16:45.843Z,29.45
2024-01-11T11:18:47.844Z,28.00
2024-01-11T11:20:49.722Z,26.92
2024-01-11T11:23:14.188Z,28.10
2024-01-11T11:25:26.878Z,26.42
2024-01-11T11:27:28.749Z,28.02
2024-01-11T11:29:30.965Z,29.40
2024-01-11T11:31:39.846Z,28.80
2024-01-11T11:33:42.390Z,28.15
2024-01-11T11:35:44.494Z,26.55
2024-01-11T11:37:46.435Z,28.85
2024-01-11T11:39:48.266Z,26.73
2024-01-11T11:41:51.231Z,28.17
2024-01-11T11:43:53.042Z,28.08
2024-01-11T11:45:55.575Z,28.10
2024-01-11T11:47:57.445Z,26.85
2024-01-11T11:50:06.573Z,28.15
2024-01-11T11:52:16.134Z,27.52
2024-01-11T11:54:18.696Z,27.25
2024-01-11T11:56:24.829Z,27.48
2024-01-11T11:58:26.737Z,26.83
2024-01-11T12:00:31.770Z,24.90
2024-01-11T12:02:33.980Z,28.17
2024-01-11T12:04:40.116Z,27.75
2024-01-11T12:06:47.397Z,25.40
2024-01-11T12:08:50.456Z,28.67
2024-01-11T12:10:53.325Z,26.30
2024-01-11T12:12:55.697Z,26.25
2024-01-11T12:15:00.336Z,27.33
2024-01-11T12:17:02.210Z,25.63
2024-01-11T12:19:04.060Z,25.02
2024-01-11T12:21:06.744Z,24.17
2024-01-11T12:23:09.096Z,24.77
2024-01-11T12:25:12.199Z,26.08
2024-01-11T12:27:14.193Z,25.38
2024-01-11T12:29:16.131Z,24.80
2024-01-11T12:31:18.343Z,23.23
2024-01-11T12:33:21.145Z,23.60
2024-01-11T12:35:24.371Z,24.42
2024-01-11T12:37:26.181Z,24.13
2024-01-11T12:39:28.181Z,24.08
2024-01-11T12:41:30.143Z,24.38
2024-01-11T12:43:32.211Z,25.02
2024-01-11T12:45:34.522Z,22.08
2024-01-11T12:47:36.379Z,24.52
2024-01-11T12:49:38.658Z,22.83
2024-01-11T12:51:41.266Z,24.27
2024-01-11T12:53:43.714Z,22.10
2024-01-11T12:55:55.332Z,22.73
2024-01-11T12:58:12.461Z,23.60
2024-01-11T13:00:15.444Z,23.67
2024-01-11T13:02:20.408Z,24.52
2024-01-11T13:04:22.514Z,23.42
2024-01-11T13:06:24.653Z,23.05
2024-01-11T13:08:28.720Z,22.02
2024-01-11T13:10:30.826Z,22.00
2024-01-11T13:12:32.998Z,21.80
2024-01-11T13:14:35.122Z,21.10
2024-01-11T13:16:37.000Z,22.02
2024-01-11T13:18:38.904Z,22.58
2024-01-11T13:20:40.773Z,21.95
2024-01-11T13:22:42.814Z,22.33
2024-01-11T13:24:44.762Z,21.10
2024-01-11T13:26:46.608Z,23.08
2024-01-11T13:28:48.495Z,21.50
2024-01-11T13:30:50.670Z,20.35
2024-01-11T13:32:52.577Z,20.90
2024-01-11T13:34:54.638Z,21.13
2024-01-11T13:36:56.389Z,21.30
2024-01-11T13:38:58.223Z,21.75
2024-01-11T13:40:59.993Z,21.35
2024-01-11T13:43:04.301Z,21.50
2024-01-11T13:45:08.541Z,21.42
2024-01-11T13:47:10.353Z,21.10
2024-01-11T13:49:16.051Z,20.10
2024-01-11T13:51:18.034Z,20.48
2024-01-11T13:53:19.809Z,21.13
2024-01-11T13:55:23.136Z,20.90
2024-01-11T13:57:25.045Z,19.90
2024-01-11T13:59:27.354Z,21.10
2024-01-11T14:01:29.075Z,18.92
2024-01-11T14:03:30.852Z,20.73
2024-01-11T14:05:32.754Z,21.27
2024-01-11T14:07:35.797Z,20.08
2024-01-11T14:09:37.543Z,19.92
2024-01-11T14:11:39.336Z,20.70
2024-01-11T14:13:41.687Z,18.50
2024-01-11T14:15:43.674Z,20.88
2024-01-11T14:17:45.725Z,19.52
2024-01-11T14:19:47.660Z,20.67
2024-01-11T14:21:50.297Z,19.95
2024-01-11T14:23:52.939Z,18.42
2024-01-11T14:25:56.831Z,19.17
2024-01-11T14:27:58.662Z,20.27
2024-01-11T14:30:00.374Z,20.08
2024-01-11T14:32:02.287Z,18.23
2024-01-11T14:34:04.271Z,20.38
2024-01-11T14:36:06.509Z,18.70
2024-01-11T14:38:08.416Z,19.58
2024-01-11T14:40:13.697Z,19.55
2024-01-11T14:42:15.680Z,18.23
2024-01-11T14:44:17.417Z,18.83
2024-01-11T14:46:19.136Z,18.02
2024-01-11T14:48:21.399Z,17.90
2024-01-11T14:50:23.385Z,17.35
2024-01-11T14:52:25.230Z,17.60
2024-01-11T14:54:26.993Z,16.95
2024-01-11T14:56:28.844Z,17.10
2024-01-11T14:58:30.596Z,17.95
2024-01-11T15:00:32.524Z,18.13
2024-01-11T15:02:35.061Z,17.90
2024-01-11T15:04:37.485Z,16.35
2024-01-11T15:06:40.113Z,18.65
2024-01-11T15:08:42.081Z,17.42
2024-01-11T15:10:44.151Z,17.45
2024-01-11T15:12:45.887Z,17.75
2024-01-11T15:14:47.927Z,19.83
2024-01-11T15:16:49.955Z,18.25
2024-01-11T15:18:51.861Z,17.77
2024-01-11T15:20:53.883Z,18.92
2024-01-11T15:22:55.792Z,17.80
2024-01-11T15:24:57.687Z,18.17
2024-01-11T15:26:59.435Z,18.05
2024-01-11T15:29:01.431Z,16.80
2024-01-11T15:31:03.596Z,19.60
2024-01-11T15:33:05.855Z,18.75
2024-01-11T15:35:09.174Z,17.73
2024-01-11T15:37:11.498Z,18.58
2024-01-11T15:39:25.045Z,18.15
2024-01-11T15:41:30.018Z,18.27
2024-01-11T15:43:32.938Z,20.17
2024-01-11T15:45:36.251Z,18.42
2024-01-11T15:47:39.564Z,18.00
2024-01-11T15:49:41.540Z,18.77
2024-01-11T15:51:43.340Z,17.85
2024-01-11T15:53:45.182Z,18.60
2024-01-11T15:55:47.002Z,16.95
2024-01-11T15:57:48.985Z,17.38
2024-01-11T15:59:50.732Z,16.70
2024-01-11T16:02:03.493Z,16.95
2024-01-11T16:04:09.409Z,17.33
2024-01-11T16:06:11.303Z,16.48
2024-01-11T16:08:13.221Z,16.85
2024-01-11T16:10:15.018Z,17.83
2024-01-11T16:12:17.182Z,18.02
2024-01-11T16:14:19.009Z,17.30
2024-01-11T16:16:20.768Z,17.25
2024-01-11T16:18:24.645Z,18.38
2024-01-11T16:20:26.519Z,19.75
2024-01-11T16:22:28.440Z,18.50
2024-01-11T16:24:30.666Z,17.35
2024-01-11T16:26:32.519Z,20.40
2024-01-11T16:28:34.307Z,19.30
2024-01-11T16:30:36.175Z,18.85
2024-01-11T16:32:38.054Z,18.35
2024-01-11T16:34:40.433Z,19.55
2024-01-11T16:36:42.248Z,19.05
2024-01-11T16:38:44.596Z,19.30
2024-01-11T16:40:46.440Z,19.70
2024-01-11T16:42:48.808Z,19.45
2024-01-11T16:44:51.319Z,18.13
2024-01-11T16:46:54.007Z,19.13
2024-01-11T16:48:56.087Z,18.17
2024-01-11T16:50:58.071Z,18.92
2024-01-11T16:53:00.110Z,19.25
2024-01-11T16:55:01.916Z,17.98
2024-01-11T16:57:05.568Z,18.48
2024-01-11T16:59:07.530Z,18.48
2024-01-11T17:01:09.944Z,18.10
2024-01-11T17:03:11.970Z,17.25
2024-01-11T17:05:14.054Z,18.52
2024-01-11T17:07:15.935Z,17.02
2024-01-11T17:09:17.641Z,18.65
2024-01-11T17:11:19.457Z,17.75
2024-01-11T17:13:24.250Z,18.00
2024-01-11T17:15:27.992Z,18.83
2024-01-11T17:17:30.032Z,19.02
2024-01-11T17:19:31.873Z,18.15
2024-01-11T17:21:33.724Z,19.48
2024-01-11T17:23:35.561Z,19.38
2024-01-11T17:25:37.289Z,19.85
2024-01-11T17:27:40.605Z,19.10
2024-01-11T17:29:43.518Z,18.67
2024-01-11T17:31:46.205Z,19.58
2024-01-11T17:33:48.542Z,21.10
2024-01-11T17:35:50.628Z,19.75
2024-01-11T17:37:52.402Z,20.15
2024-01-11T17:39:54.592Z,21.05
2024-01-11T17:42:00.803Z,20.00
2024-01-11T17:44:02.672Z,19.23
2024-01-11T17:46:05.100Z,19.90
2024-01-11T17:48:07.442Z,19.50
2024-01-11T17:50:09.632Z,19.45
2024-01-11T17:52:11.419Z,21.00
2024-01-11T17:54:13.313Z,21.48
2024-01-11T17:56:16.355Z,23.70
2024-01-11T17:58:18.928Z,21.20
2024-01-11T18:00:22.039Z,20.40
2024-01-11T18:02:23.830Z,19.60
2024-01-11T18:04:25.674Z,20.02
2024-01-11T18:06:27.611Z,24.10
2024-01-11T18:08:29.869Z,21.30
2024-01-11T18:10:38.750Z,22.75
2024-01-11T18:12:40.935Z,21.90
2024-01-11T18:14:42.865Z,22.35
2024-01-11T18:16:44.734Z,21.35
2024-01-11T18:18:49.723Z,20.35
2024-01-11T18:20:51.796Z,21.38
2024-01-11T18:22:54.050Z,23.80
2024-01-11T18:24:55.793Z,23.40
2024-01-11T18:26:57.587Z,23.40
2024-01-11T18:28:59.549Z,21.70
2024-01-11T18:31:01.397Z,21.27
2024-01-11T18:33:04.290Z,20.77
2024-01-11T18:35:09.228Z,22.30
2024-01-11T18:37:11.056Z,20.80
2024-01-11T18:39:17.121Z,20.40
2024-01-11T18:41:19.328Z,22.52
2024-01-11T18:43:21.189Z,21.45
2024-01-11T18:45:23.253Z,21.10
2024-01-11T18:47:25.493Z,21.85
2024-01-11T18:49:27.350Z,20.52
2024-01-11T18:51:30.464Z,21.60
2024-01-11T18:53:32.774Z,20.45
2024-01-11T18:55:34.579Z,22.48
2024-01-11T18:57:39.691Z,20.90
2024-01-11T18:59:41.474Z,20.77
2024-01-11T19:01:48.154Z,20.50
2024-01-11T19:03:49.922Z,21.25
2024-01-11T19:05:51.988Z,20.15
2024-01-11T19:07:54.046Z,20.13
2024-01-11T19:09:55.790Z,20.17
2024-01-11T19:12:00.005Z,19.45
2024-01-11T19:14:01.811Z,19.10
2024-01-11T19:16:03.883Z,18.58
2024-01-11T19:18:06.278Z,17.88
2024-01-11T19:20:08.795Z,18.95
2024-01-11T19:22:10.745Z,19.33
2024-01-11T19:24:12.706Z,20.23
2024-01-11T19:26:14.529Z,19.50
2024-01-11T19:28:16.425Z,18.95
2024-01-11T19:30:18.457Z,25.35
2024-01-11T19:32:20.268Z,24.83
2024-01-11T19:34:22.121Z,20.58
2024-01-11T19:36:26.061Z,19.90
2024-01-11T19:38:27.957Z,20.67
2024-01-11T19:40:29.914Z,19.33
2024-01-11T19:42:31.821Z,18.58
2024-01-11T19:44:33.671Z,18.40
2024-01-11T19:46:35.692Z,17.90
2024-01-11T19:48:37.569Z,18.83
2024-01-11T19:50:39.542Z,20.45
2024-01-11T19:52:41.325Z,21.58
2024-01-11T19:54:43.247Z,26.95
2024-01-11T19:56:45.270Z,23.05
2024-01-11T19:58:48.529Z,23.67
2024-01-11T20:00:51.476Z,24.33
2024-01-11T20:02:53.460Z,25.15
2024-01-11T20:04:56.763Z,27.83
2024-01-11T20:06:58.562Z,26.95
2024-01-11T20:09:01.379Z,27.70
2024-01-11T20:11:04.124Z,24.35
2024-01-11T20:13:06.140Z,20.83
2024-01-11T20:15:10.516Z,21.92
2024-01-11T20:17:12.574Z,26.95
2024-01-11T20:19:14.532Z,29.65
2024-01-11T20:21:16.422Z,26.50
2024-01-11T20:23:18.497Z,22.65
2024-01-11T20:25:20.310Z,20.35
2024-01-11T20:27:23.523Z,30.00
2024-01-11T20:29:27.586Z,22.90
2024-01-11T20:31:30.538Z,21.35
2024-01-11T20:33:32.867Z,20.65
2024-01-11T20:35:35.163Z,31.40
2024-01-11T20:37:41.551Z,24.33
2024-01-11T20:39:43.355Z,19.05
2024-01-11T20:41:46.163Z,21.10
2024-01-11T20:43:50.239Z,25.80
2024-01-11T20:45:53.098Z,19.33
2024-01-11T20:47:55.053Z,19.50
2024-01-11T20:49:56.958Z,18.63
2024-01-11T20:52:00.473Z,19.73
2024-01-11T20:54:02.496Z,19.70
2024-01-11T20:56:04.590Z,21.88
2024-01-11T20:58:10.750Z,20.48
2024-01-11T21:00:13.186Z,25.02
2024-01-11T21:02:14.954Z,20.58
2024-01-11T21:04:16.787Z,20.27
2024-01-11T21:06:18.570Z,19.77
2024-01-11T21:08:21.351Z,19.30
2024-01-11T21:10:25.664Z,21.67
2024-01-11T21:12:27.379Z,18.38
2024-01-11T21:14:29.916Z,17.73
2024-01-11T21:16:31.760Z,18.38
2024-01-11T21:18:34.147Z,18.30
2024-01-11T21:20:35.982Z,17.15
2024-01-11T21:22:37.772Z,17.85
2024-01-11T21:24:39.531Z,23.80
2024-01-11T21:26:42.957Z,18.48
2024-01-11T21:28:44.848Z,20.30
2024-01-11T21:30:46.694Z,21.08
2024-01-11T21:32:48.950Z,25.73
2024-01-11T21:34:50.840Z,18.75
2024-01-11T21:36:52.699Z,24.77
2024-01-11T21:38:56.722Z,18.48
2024-01-11T21:40:58.727Z,20.40
2024-01-11T21:43:00.532Z,17.70
2024-01-11T21:45:02.327Z,16.02
2024-01-11T21:47:04.336Z,18.08
2024-01-11T21:49:06.519Z,19.10
2024-01-11T21:51:08.822Z,16.55
2024-01-11T21:53:10.656Z,17.25
2024-01-11T21:55:12.494Z,16.08
2024-01-11T21:57:14.240Z,18.77
2024-01-11T21:59:16.020Z,14.63
2024-01-11T22:01:18.026Z,17.10
2024-01-11T22:03:21.589Z,16.65
2024-01-11T22:05:23.361Z,18.85
2024-01-11T22:07:25.222Z,20.48
2024-01-11T22:09:26.922Z,16.05
2024-01-11T22:11:30.996Z,14.90
2024-01-11T22:13:32.777Z,21.17
2024-01-11T22:15:34.532Z,15.68
2024-01-11T22:17:36.275Z,15.63
2024-01-11T22:19:38.244Z,15.05
2024-01-11T22:21:43.462Z,18.13
2024-01-11T22:23:45.203Z,15.00
2024-01-11T22:25:46.914Z,16.15
2024-01-11T22:27:49.009Z,14.70
2024-01-11T22:29:50.827Z,13.77
2024-01-11T22:31:52.881Z,14.25
2024-01-11T22:33:54.778Z,16.80
2024-01-11T22:35:56.671Z,14.85
2024-01-11T22:37:58.420Z,16.25
2024-01-11T22:40:00.340Z,13.88
2024-01-11T22:42:04.270Z,18.35
2024-01-11T22:44:06.885Z,15.48
2024-01-11T22:46:08.620Z,18.00
2024-01-11T22:48:10.428Z,18.35
2024-01-11T22:50:12.912Z,14.40
2024-01-11T22:52:14.742Z,14.27
2024-01-11T22:54:16.483Z,15.25
2024-01-11T22:56:18.246Z,16.40
2024-01-11T22:58:20.013Z,15.35
2024-01-11T23:00:22.566Z,14.32
2024-01-11T23:02:24.910Z,21.35
2024-01-11T23:04:26.633Z,13.73
2024-01-11T23:06:28.659Z,14.27
2024-01-11T23:08:30.572Z,17.67
2024-01-11T23:10:32.356Z,13.55
2024-01-11T23:12:34.218Z,15.60
2024-01-11T23:14:35.970Z,12.77
2024-01-11T23:16:37.819Z,13.23
2024-01-11T23:18:40.025Z,13.73
2024-01-11T23:20:41.928Z,12.77
2024-01-11T23:22:43.734Z,14.90
2024-01-11T23:24:45.488Z,13.10
2024-01-11T23:26:47.213Z,13.05
2024-01-11T23:28:48.976Z,12.40
2024-01-11T23:30:50.876Z,12.57
2024-01-11T23:32:52.726Z,13.93
2024-01-11T23:34:54.637Z,13.07
2024-01-11T23:36:56.513Z,13.25
2024-01-11T23:38:58.370Z,13.93
2024-01-11T23:41:00.160Z,14.50
2024-01-11T23:43:02.705Z,14.48
2024-01-11T23:45:06.154Z,13.52
2024-01-11T23:47:09.076Z,13.65
2024-01-11T23:49:11.044Z,13.20
2024-01-11T23:51:12.912Z,13.35
2024-01-11T23:53:14.816Z,13.70
2024-01-11T23:55:16.541Z,14.38
2024-01-11T23:57:18.465Z,14.25
2024-01-11T23:59:20.644Z,12.82
